createdAt,value
2018-05-07T00:00:46.583Z,13.24
2018-05-07T00:01:46.736Z,13.12
2018-05-07T00:02:46.889Z,13.15
2018-05-07T00:03:47.082Z,13.12
2018-05-07T00:04:47.193Z,13.14
2018-05-07T00:05:47.413Z,13.11
2018-05-07T00:06:47.509Z,13.04
2018-05-07T00:07:47.657Z,13.06
2018-05-07T00:08:47.813Z,12.99
2018-05-07T00:09:47.978Z,12.99
2018-05-07T00:10:48.118Z,12.97
2018-05-07T00:11:48.283Z,12.99
2018-05-07T00:12:48.421Z,12.95
2018-05-07T00:13:48.573Z,12.81
2018-05-07T00:14:48.724Z,12.63
2018-05-07T00:15:48.877Z,12.57
2018-05-07T00:16:49.028Z,12.49
2018-05-07T00:17:49.181Z,12.54
2018-05-07T00:18:49.332Z,12.45
2018-05-07T00:19:49.486Z,12.48
2018-05-07T00:20:49.644Z,12.34
2018-05-07T00:21:49.795Z,12.42
2018-05-07T00:22:49.947Z,12.38
2018-05-07T00:23:50.098Z,12.30
2018-05-07T00:24:50.250Z,12.23
2018-05-07T00:25:50.402Z,12.27
2018-05-07T00:26:50.555Z,12.06
2018-05-07T00:27:50.707Z,12.11
2018-05-07T00:28:50.860Z,12.11
2018-05-07T00:29:51.018Z,12.19
2018-05-07T00:30:51.166Z,12.04
2018-05-07T00:31:51.319Z,12.04
2018-05-07T00:32:51.474Z,11.97
2018-05-07T00:33:51.625Z,11.94
2018-05-07T00:34:51.775Z,11.83
2018-05-07T00:35:51.925Z,11.62
2018-05-07T00:36:52.079Z,11.59
2018-05-07T00:37:52.231Z,11.52
2018-05-07T00:38:52.381Z,11.61
2018-05-07T00:39:52.539Z,11.56
2018-05-07T00:40:52.694Z,11.39
2018-05-07T00:41:52.842Z,11.47
2018-05-07T00:42:52.994Z,11.41
2018-05-07T00:43:53.142Z,11.35
2018-05-07T00:44:53.293Z,11.44
2018-05-07T00:45:53.446Z,11.34
2018-05-07T00:46:53.599Z,11.24
2018-05-07T00:47:53.749Z,11.27
2018-05-07T00:48:53.901Z,11.34
2018-05-07T00:49:54.053Z,11.25
2018-05-07T00:50:54.206Z,11.20
2018-05-07T00:51:54.361Z,11.10
2018-05-07T00:52:54.511Z,11.06
2018-05-07T00:53:54.662Z,11.19
2018-05-07T00:54:54.813Z,11.25
2018-05-07T00:55:54.966Z,11.25
2018-05-07T00:56:55.117Z,11.17
2018-05-07T00:57:55.269Z,11.41
2018-05-07T00:58:55.418Z,11.44
2018-05-07T00:59:55.570Z,11.53
2018-05-07T01:00:55.726Z,11.49
2018-05-07T01:01:55.873Z,11.61
2018-05-07T01:02:56.026Z,11.56
2018-05-07T01:03:56.174Z,11.59
2018-05-07T01:04:56.329Z,11.65
2018-05-07T01:05:56.478Z,11.67
2018-05-07T01:06:56.630Z,11.78
2018-05-07T01:07:56.780Z,11.90
2018-05-07T01:08:56.933Z,11.83
2018-05-07T01:09:57.084Z,11.77
2018-05-07T01:10:57.234Z,11.80
2018-05-07T01:11:57.385Z,11.90
2018-05-07T01:12:57.536Z,11.86
2018-05-07T01:13:57.688Z,11.86
2018-05-07T01:14:57.838Z,11.85
2018-05-07T01:15:57.990Z,11.86
2018-05-07T01:16:58.141Z,11.86
2018-05-07T01:17:58.301Z,11.86
2018-05-07T01:18:58.446Z,11.83
2018-05-07T01:19:58.600Z,11.82
2018-05-07T01:20:58.748Z,11.83
2018-05-07T01:21:58.899Z,11.71
2018-05-07T01:22:59.053Z,11.47
2018-05-07T01:23:59.203Z,11.49
2018-05-07T01:24:59.350Z,11.39
2018-05-07T01:25:59.507Z,11.46
2018-05-07T01:26:59.660Z,11.39
2018-05-07T01:27:59.810Z,11.57
2018-05-07T01:28:59.962Z,11.62
2018-05-07T01:30:00.122Z,11.59
2018-05-07T01:31:00.259Z,11.59
2018-05-07T01:32:00.423Z,11.49
2018-05-07T01:33:00.575Z,11.53
2018-05-07T01:34:00.724Z,11.49
2018-05-07T01:35:00.880Z,11.54
2018-05-07T01:36:01.034Z,11.43
2018-05-07T01:37:01.185Z,11.27
2018-05-07T01:38:01.335Z,11.24
2018-05-07T01:39:01.488Z,11.07
2018-05-07T01:40:01.638Z,11.11
2018-05-07T01:41:01.792Z,11.01
2018-05-07T01:42:01.945Z,10.99
2018-05-07T01:43:02.096Z,11.02
2018-05-07T01:44:02.246Z,10.91
2018-05-07T01:45:02.397Z,10.99
2018-05-07T01:46:02.547Z,10.94
2018-05-07T01:47:02.699Z,10.89
2018-05-07T01:48:02.850Z,10.94
2018-05-07T01:49:03.003Z,10.77
2018-05-07T01:50:03.154Z,10.86
2018-05-07T01:51:03.307Z,10.94
2018-05-07T01:52:03.463Z,10.78
2018-05-07T01:53:03.621Z,10.70
2018-05-07T01:54:03.775Z,10.86
2018-05-07T01:55:03.914Z,10.86
2018-05-07T01:56:04.065Z,10.92
2018-05-07T01:57:04.216Z,10.83
2018-05-07T01:58:04.368Z,10.84
2018-05-07T01:59:04.521Z,10.89
2018-05-07T02:00:04.677Z,10.95
2018-05-07T02:01:04.828Z,10.76
2018-05-07T02:02:04.979Z,10.74
2018-05-07T02:03:05.135Z,10.70
2018-05-07T02:04:05.322Z,10.74
2018-05-07T02:05:05.430Z,10.74
2018-05-07T02:06:05.581Z,10.83
2018-05-07T02:07:05.732Z,10.83
2018-05-07T02:08:05.883Z,10.83
2018-05-07T02:09:06.033Z,10.71
2018-05-07T02:10:06.189Z,10.80
2018-05-07T02:11:06.339Z,10.91
2018-05-07T02:12:06.492Z,10.76
2018-05-07T02:13:06.642Z,10.74
2018-05-07T02:14:06.795Z,10.58
2018-05-07T02:15:06.947Z,10.71
2018-05-07T02:16:07.101Z,10.56
2018-05-07T02:17:07.250Z,10.59
2018-05-07T02:18:07.400Z,10.71
2018-05-07T02:19:07.555Z,10.66
2018-05-07T02:20:07.707Z,10.76
2018-05-07T02:21:07.863Z,10.63
2018-05-07T02:22:08.014Z,10.63
2018-05-07T02:23:08.169Z,10.73
2018-05-07T02:24:08.319Z,10.70
2018-05-07T02:25:08.469Z,10.55
2018-05-07T02:26:08.619Z,10.62
2018-05-07T02:27:08.771Z,10.55
2018-05-07T02:28:08.924Z,10.55
2018-05-07T02:29:09.073Z,10.55
2018-05-07T02:30:09.228Z,10.42
2018-05-07T02:31:09.378Z,10.52
2018-05-07T02:32:09.531Z,10.43
2018-05-07T02:33:09.681Z,10.25
2018-05-07T02:34:09.834Z,10.12
2018-05-07T02:35:09.992Z,10.18
2018-05-07T02:36:10.137Z,10.04
2018-05-07T02:37:10.292Z,9.99
2018-05-07T02:38:10.440Z,10.25
2018-05-07T02:39:10.592Z,10.19
2018-05-07T02:40:10.744Z,10.28
2018-05-07T02:41:10.895Z,10.14
2018-05-07T02:42:11.046Z,10.01
2018-05-07T02:43:11.197Z,9.88
2018-05-07T02:44:11.348Z,9.85
2018-05-07T02:45:11.501Z,9.73
2018-05-07T02:46:11.650Z,9.73
2018-05-07T02:47:11.802Z,9.78
2018-05-07T02:48:11.954Z,9.78
2018-05-07T02:49:12.106Z,9.86
2018-05-07T02:50:12.248Z,9.78
2018-05-07T02:51:12.452Z,9.86
2018-05-07T02:52:12.581Z,9.86
2018-05-07T02:53:12.734Z,9.96
2018-05-07T02:54:12.884Z,9.89
2018-05-07T02:55:13.036Z,9.96
2018-05-07T02:56:13.188Z,9.89
2018-05-07T02:57:13.339Z,9.94
2018-05-07T02:58:13.492Z,9.88
2018-05-07T02:59:13.641Z,9.88
2018-05-07T03:00:13.795Z,9.86
2018-05-07T03:01:13.948Z,9.81
2018-05-07T03:02:14.098Z,9.79
2018-05-07T03:03:14.250Z,9.73
2018-05-07T03:04:14.401Z,9.76
2018-05-07T03:05:14.554Z,9.71
2018-05-07T03:06:14.705Z,9.61
2018-05-07T03:07:14.857Z,9.49
2018-05-07T03:08:15.007Z,9.53
2018-05-07T03:09:15.160Z,9.60
2018-05-07T03:10:15.317Z,9.56
2018-05-07T03:11:15.462Z,9.43
2018-05-07T03:12:15.634Z,9.39
2018-05-07T03:13:15.769Z,9.25
2018-05-07T03:14:15.917Z,9.24
2018-05-07T03:15:16.069Z,9.27
2018-05-07T03:16:16.218Z,9.25
2018-05-07T03:17:16.371Z,9.38
2018-05-07T03:18:16.522Z,9.45
2018-05-07T03:19:16.673Z,9.49
2018-05-07T03:20:16.823Z,9.53
2018-05-07T03:21:16.975Z,9.64
2018-05-07T03:22:17.127Z,9.66
2018-05-07T03:23:17.274Z,9.68
2018-05-07T03:24:17.427Z,9.67
2018-05-07T03:25:17.577Z,9.58
2018-05-07T03:26:17.727Z,9.52
2018-05-07T03:27:17.878Z,9.57
2018-05-07T03:28:18.029Z,9.42
2018-05-07T03:29:18.180Z,9.27
2018-05-07T03:30:18.331Z,9.15
2018-05-07T03:31:18.487Z,9.24
2018-05-07T03:32:18.642Z,9.27
2018-05-07T03:33:18.793Z,9.25
2018-05-07T03:34:18.943Z,9.28
2018-05-07T03:35:19.097Z,9.43
2018-05-07T03:36:19.247Z,9.30
2018-05-07T03:37:19.397Z,9.25
2018-05-07T03:38:19.549Z,9.10
2018-05-07T03:39:19.698Z,8.90
2018-05-07T03:40:19.852Z,8.72
2018-05-07T03:41:20.003Z,8.73
2018-05-07T03:42:20.153Z,8.69
2018-05-07T03:43:20.302Z,8.54
2018-05-07T03:44:20.457Z,8.66
2018-05-07T03:45:20.604Z,8.62
2018-05-07T03:46:20.753Z,8.68
2018-05-07T03:47:20.902Z,8.69
2018-05-07T03:48:21.054Z,8.75
2018-05-07T03:49:21.204Z,8.75
2018-05-07T03:50:21.358Z,8.83
2018-05-07T03:51:21.508Z,8.94
2018-05-07T03:52:21.658Z,8.97
2018-05-07T03:53:21.807Z,8.99
2018-05-07T03:54:21.959Z,9.13
2018-05-07T03:55:22.111Z,9.09
2018-05-07T03:56:22.261Z,9.12
2018-05-07T03:57:22.409Z,9.21
2018-05-07T03:58:22.566Z,9.10
2018-05-07T03:59:22.711Z,9.10
2018-05-07T04:00:22.863Z,9.10
2018-05-07T04:01:23.029Z,9.05
2018-05-07T04:02:23.166Z,9.15
2018-05-07T04:03:23.319Z,9.21
2018-05-07T04:04:23.468Z,9.23
2018-05-07T04:05:23.621Z,9.30
2018-05-07T04:06:23.771Z,9.31
2018-05-07T04:07:23.935Z,9.32
2018-05-07T04:08:24.071Z,9.40
2018-05-07T04:09:24.222Z,9.43
2018-05-07T04:10:24.373Z,9.43
2018-05-07T04:11:24.524Z,9.45
2018-05-07T04:12:24.679Z,9.38
2018-05-07T04:13:24.834Z,9.40
2018-05-07T04:14:24.976Z,9.46
2018-05-07T04:15:25.130Z,9.57
2018-05-07T04:16:25.279Z,9.64
2018-05-07T04:17:25.429Z,9.60
2018-05-07T04:18:25.580Z,9.66
2018-05-07T04:19:25.730Z,9.79
2018-05-07T04:20:25.883Z,9.68
2018-05-07T04:21:26.033Z,9.67
2018-05-07T04:22:26.184Z,9.75
2018-05-07T04:23:26.412Z,9.58
2018-05-07T04:24:26.487Z,9.64
2018-05-07T04:25:26.637Z,9.56
2018-05-07T04:26:26.802Z,9.57
2018-05-07T04:27:26.934Z,9.53
2018-05-07T04:28:27.084Z,9.40
2018-05-07T04:29:27.234Z,9.43
2018-05-07T04:30:27.385Z,9.45
2018-05-07T04:31:27.536Z,9.43
2018-05-07T04:32:27.691Z,9.39
2018-05-07T04:33:27.837Z,9.43
2018-05-07T04:34:27.988Z,9.39
2018-05-07T04:35:28.138Z,9.39
2018-05-07T04:36:28.294Z,9.52
2018-05-07T04:37:28.440Z,9.40
2018-05-07T04:38:28.592Z,9.38
2018-05-07T04:39:28.741Z,9.38
2018-05-07T04:40:28.893Z,9.28
2018-05-07T04:41:29.044Z,9.39
2018-05-07T04:42:29.196Z,9.35
2018-05-07T04:43:29.346Z,9.20
2018-05-07T04:44:29.495Z,9.28
2018-05-07T04:45:29.648Z,9.30
2018-05-07T04:46:29.800Z,9.27
2018-05-07T04:47:29.952Z,9.34
2018-05-07T04:48:30.103Z,9.40
2018-05-07T04:49:30.255Z,9.49
2018-05-07T04:50:30.406Z,9.50
2018-05-07T04:51:30.557Z,9.45
2018-05-07T04:52:30.708Z,9.61
2018-05-07T04:53:30.854Z,9.50
2018-05-07T04:54:31.010Z,9.49
2018-05-07T04:55:31.160Z,9.48
2018-05-07T04:56:31.313Z,9.49
2018-05-07T04:57:31.463Z,9.61
2018-05-07T04:58:31.628Z,9.64
2018-05-07T04:59:31.759Z,9.68
2018-05-07T05:00:31.909Z,9.78
2018-05-07T05:01:32.061Z,9.89
2018-05-07T05:02:32.217Z,9.86
2018-05-07T05:03:32.387Z,9.83
2018-05-07T05:04:32.530Z,9.94
2018-05-07T05:05:32.655Z,9.94
2018-05-07T05:06:32.810Z,9.99
2018-05-07T05:07:32.962Z,9.94
2018-05-07T05:08:33.104Z,10.07
2018-05-07T05:09:33.254Z,10.26
2018-05-07T05:10:33.408Z,10.15
2018-05-07T05:11:33.563Z,10.21
2018-05-07T05:12:33.716Z,10.26
2018-05-07T05:13:33.867Z,10.22
2018-05-07T05:14:34.021Z,10.22
2018-05-07T05:15:34.170Z,10.40
2018-05-07T05:16:34.320Z,10.39
2018-05-07T05:17:34.475Z,10.51
2018-05-07T05:18:34.625Z,10.55
2018-05-07T05:19:34.779Z,10.66
2018-05-07T05:20:34.929Z,10.63
2018-05-07T05:21:35.082Z,10.63
2018-05-07T05:22:35.224Z,10.60
2018-05-07T05:23:35.378Z,10.62
2018-05-07T05:24:35.530Z,10.74
2018-05-07T05:25:35.678Z,10.80
2018-05-07T05:26:35.833Z,10.84
2018-05-07T05:27:35.983Z,10.84
2018-05-07T05:28:36.146Z,10.99
2018-05-07T05:29:36.275Z,10.99
2018-05-07T05:30:36.432Z,10.91
2018-05-07T05:31:36.590Z,10.99
2018-05-07T05:32:36.741Z,11.06
2018-05-07T05:33:36.893Z,11.19
2018-05-07T05:34:37.045Z,11.11
2018-05-07T05:35:37.198Z,11.02
2018-05-07T05:36:37.347Z,11.24
2018-05-07T05:37:37.502Z,11.35
2018-05-07T05:38:37.653Z,11.36
2018-05-07T05:39:37.807Z,11.52
2018-05-07T05:40:37.958Z,11.49
2018-05-07T05:41:38.117Z,11.57
2018-05-07T05:42:38.262Z,11.68
2018-05-07T05:43:38.522Z,11.77
2018-05-07T05:44:38.565Z,11.68
2018-05-07T05:45:38.722Z,11.75
2018-05-07T05:46:38.870Z,11.94
2018-05-07T05:47:39.023Z,11.94
2018-05-07T05:48:39.174Z,11.97
2018-05-07T05:49:39.326Z,11.99
2018-05-07T05:50:39.480Z,12.09
2018-05-07T05:51:39.631Z,12.19
2018-05-07T05:52:39.783Z,12.34
2018-05-07T05:53:39.961Z,12.44
2018-05-07T05:54:40.089Z,12.30
2018-05-07T05:55:40.309Z,12.44
2018-05-07T05:56:40.392Z,12.54
2018-05-07T05:57:40.549Z,12.52
2018-05-07T05:58:40.697Z,12.63
2018-05-07T05:59:40.850Z,12.67
2018-05-07T06:00:41.001Z,12.70
2018-05-07T06:01:41.155Z,12.78
2018-05-07T06:02:41.307Z,12.85
2018-05-07T06:03:41.569Z,12.78
2018-05-07T06:04:41.614Z,12.92
2018-05-07T06:05:41.765Z,12.85
2018-05-07T06:06:41.916Z,12.82
2018-05-07T06:07:42.069Z,12.89
2018-05-07T06:08:42.230Z,13.00
2018-05-07T06:09:42.374Z,12.95
2018-05-07T06:10:42.526Z,12.89
2018-05-07T06:11:42.682Z,13.09
2018-05-07T06:12:42.833Z,12.99
2018-05-07T06:13:42.984Z,13.09
2018-05-07T06:14:43.202Z,13.07
2018-05-07T06:15:43.294Z,12.96
2018-05-07T06:16:43.442Z,13.07
2018-05-07T06:17:43.595Z,13.17
2018-05-07T06:18:43.747Z,13.18
2018-05-07T06:19:43.900Z,13.22
2018-05-07T06:20:44.053Z,13.21
2018-05-07T06:21:44.207Z,13.29
2018-05-07T06:22:44.361Z,13.54
2018-05-07T06:23:44.513Z,13.47
2018-05-07T06:24:44.668Z,13.63
2018-05-07T06:25:44.819Z,13.62
2018-05-07T06:26:44.973Z,13.74
2018-05-07T06:27:45.125Z,13.61
2018-05-07T06:28:45.277Z,13.67
2018-05-07T06:29:45.431Z,13.56
2018-05-07T06:30:45.611Z,13.56
2018-05-07T06:31:45.738Z,13.63
2018-05-07T06:32:45.896Z,13.74
2018-05-07T06:33:46.048Z,13.79
2018-05-07T06:34:46.202Z,13.83
2018-05-07T06:35:46.357Z,13.92
2018-05-07T06:36:46.508Z,13.95
2018-05-07T06:37:46.665Z,14.07
2018-05-07T06:38:46.816Z,14.16
2018-05-07T06:39:46.971Z,14.21
2018-05-07T06:40:47.122Z,14.32
2018-05-07T06:41:47.283Z,14.29
2018-05-07T06:42:47.433Z,14.46
2018-05-07T06:43:47.586Z,14.50
2018-05-07T06:44:47.742Z,14.64
2018-05-07T06:45:47.948Z,14.57
2018-05-07T06:46:48.050Z,14.68
2018-05-07T06:47:48.204Z,14.84
2018-05-07T06:48:48.364Z,14.91
2018-05-07T06:49:48.521Z,14.80
2018-05-07T06:50:48.696Z,14.90
2018-05-07T06:51:48.817Z,15.01
2018-05-07T06:52:48.972Z,15.01
2018-05-07T06:53:49.129Z,15.03
2018-05-07T06:54:49.281Z,15.15
2018-05-07T06:55:49.433Z,15.03
2018-05-07T06:56:49.588Z,15.05
2018-05-07T06:57:49.742Z,15.17
2018-05-07T06:58:49.897Z,15.02
2018-05-07T06:59:50.052Z,15.21
2018-05-07T07:00:50.204Z,15.12
2018-05-07T07:01:50.364Z,15.11
2018-05-07T07:02:50.644Z,15.12
2018-05-07T07:03:50.678Z,15.27
2018-05-07T07:04:50.827Z,15.36
2018-05-07T07:05:50.983Z,15.41
2018-05-07T07:06:51.138Z,15.43
2018-05-07T07:07:51.290Z,15.54
2018-05-07T07:08:51.443Z,15.52
2018-05-07T07:09:51.599Z,15.56
2018-05-07T07:10:51.755Z,15.63
2018-05-07T07:11:51.912Z,15.66
2018-05-07T07:12:52.068Z,15.72
2018-05-07T07:13:52.222Z,15.70
2018-05-07T07:14:52.381Z,15.81
2018-05-07T07:15:52.533Z,15.96
2018-05-07T07:16:52.688Z,15.92
2018-05-07T07:17:52.843Z,16.00
2018-05-07T07:18:52.999Z,16.09
2018-05-07T07:19:53.168Z,16.04
2018-05-07T07:20:53.307Z,16.15
2018-05-07T07:21:53.522Z,16.27
2018-05-07T07:22:53.625Z,16.27
2018-05-07T07:23:53.767Z,16.23
2018-05-07T07:24:53.921Z,16.37
2018-05-07T07:25:54.076Z,16.33
2018-05-07T07:26:54.232Z,16.48
2018-05-07T07:27:54.391Z,16.60
2018-05-07T07:28:54.541Z,16.73
2018-05-07T07:29:54.696Z,16.78
2018-05-07T07:30:54.852Z,16.88
2018-05-07T07:31:55.007Z,16.93
2018-05-07T07:32:55.162Z,16.99
2018-05-07T07:33:55.398Z,16.93
2018-05-07T07:34:55.469Z,17.10
2018-05-07T07:35:55.626Z,17.07
2018-05-07T07:36:55.781Z,17.00
2018-05-07T07:37:55.937Z,17.14
2018-05-07T07:38:56.095Z,17.29
2018-05-07T07:39:56.249Z,17.35
2018-05-07T07:40:56.406Z,17.20
2018-05-07T07:41:56.559Z,17.11
2018-05-07T07:42:56.717Z,17.30
2018-05-07T07:43:56.872Z,17.23
2018-05-07T07:44:57.026Z,17.50
2018-05-07T07:45:57.180Z,17.57
2018-05-07T07:46:57.342Z,17.63
2018-05-07T07:47:57.492Z,17.82
2018-05-07T07:48:57.647Z,17.87
2018-05-07T07:49:57.802Z,17.79
2018-05-07T07:50:57.957Z,17.84
2018-05-07T07:51:58.114Z,17.82
2018-05-07T07:52:58.271Z,17.88
2018-05-07T07:53:58.428Z,17.88
2018-05-07T07:54:58.585Z,17.97
2018-05-07T07:55:58.742Z,18.00
2018-05-07T07:56:58.900Z,18.04
2018-05-07T07:57:59.056Z,17.97
2018-05-07T07:58:59.214Z,17.88
2018-05-07T07:59:59.368Z,17.89
2018-05-07T08:00:59.526Z,18.00
2018-05-07T08:01:59.680Z,18.24
2018-05-07T08:02:59.840Z,18.28
2018-05-07T08:03:59.990Z,18.27
2018-05-07T08:05:00.145Z,18.40
2018-05-07T08:06:00.302Z,18.50
2018-05-07T08:07:00.460Z,18.40
2018-05-07T08:08:00.617Z,18.39
2018-05-07T08:09:00.772Z,18.52
2018-05-07T08:10:00.930Z,18.61
2018-05-07T08:11:01.134Z,18.62
2018-05-07T08:12:01.262Z,18.65
2018-05-07T08:13:01.406Z,18.90
2018-05-07T08:14:01.562Z,18.86
2018-05-07T08:15:01.718Z,19.06
2018-05-07T08:16:01.876Z,18.95
2018-05-07T08:17:02.032Z,18.99
2018-05-07T08:18:02.209Z,18.99
2018-05-07T08:19:02.343Z,18.94
2018-05-07T08:20:02.506Z,18.95
2018-05-07T08:21:02.656Z,18.84
2018-05-07T08:22:02.812Z,18.83
2018-05-07T08:23:02.965Z,18.87
2018-05-07T08:24:03.120Z,19.01
2018-05-07T08:25:03.281Z,19.10
2018-05-07T08:26:03.439Z,19.06
2018-05-07T08:27:03.596Z,19.10
2018-05-07T08:28:03.750Z,19.08
2018-05-07T08:29:03.906Z,19.20
2018-05-07T08:30:04.063Z,19.31
2018-05-07T08:31:04.227Z,19.46
2018-05-07T08:32:04.374Z,19.69
2018-05-07T08:33:04.531Z,19.79
2018-05-07T08:34:04.686Z,19.80
2018-05-07T08:35:04.844Z,19.88
2018-05-07T08:36:05.004Z,19.97
2018-05-07T08:37:05.162Z,20.06
2018-05-07T08:38:05.318Z,20.21
2018-05-07T08:39:05.465Z,20.25
2018-05-07T08:40:05.648Z,20.31
2018-05-07T08:41:05.803Z,20.33
2018-05-07T08:42:05.961Z,20.39
2018-05-07T08:43:06.118Z,20.39
2018-05-07T08:44:06.277Z,20.50
2018-05-07T08:45:06.436Z,20.39
2018-05-07T08:46:06.593Z,20.47
2018-05-07T08:47:06.753Z,20.49
2018-05-07T08:48:06.911Z,20.58
2018-05-07T08:49:07.070Z,20.65
2018-05-07T08:50:07.227Z,20.80
2018-05-07T08:51:07.389Z,20.84
2018-05-07T08:52:07.546Z,20.80
2018-05-07T08:53:07.748Z,20.76
2018-05-07T08:54:07.857Z,20.80
2018-05-07T08:55:08.015Z,20.66
2018-05-07T08:56:08.167Z,20.61
2018-05-07T08:57:08.329Z,20.72
2018-05-07T08:58:08.505Z,21.01
2018-05-07T08:59:08.650Z,20.74
2018-05-07T09:00:08.809Z,20.83
2018-05-07T09:01:08.971Z,20.89
2018-05-07T09:02:09.185Z,20.91
2018-05-07T09:03:09.284Z,20.96
2018-05-07T09:04:09.458Z,20.90
2018-05-07T09:05:09.615Z,20.96
2018-05-07T09:06:09.742Z,21.05
2018-05-07T09:07:09.901Z,21.13
2018-05-07T09:08:10.096Z,21.19
2018-05-07T09:09:10.215Z,21.17
2018-05-07T09:10:10.375Z,21.08
2018-05-07T09:11:10.536Z,20.87
2018-05-07T09:12:10.689Z,20.96
2018-05-07T09:13:10.847Z,20.90
2018-05-07T09:14:11.010Z,20.99
2018-05-07T09:15:11.170Z,21.04
2018-05-07T09:16:11.322Z,21.02
2018-05-07T09:17:11.493Z,20.91
2018-05-07T09:18:11.646Z,21.06
2018-05-07T09:19:11.804Z,21.11
2018-05-07T09:20:11.967Z,21.13
2018-05-07T09:21:12.118Z,21.11
2018-05-07T09:22:12.277Z,21.21
2018-05-07T09:23:12.431Z,21.09
2018-05-07T09:24:12.595Z,21.21
2018-05-07T09:25:12.753Z,21.32
2018-05-07T09:26:12.911Z,21.39
2018-05-07T09:27:13.076Z,21.39
2018-05-07T09:28:13.231Z,21.45
2018-05-07T09:29:13.392Z,21.53
2018-05-07T09:30:13.552Z,21.42
2018-05-07T09:31:13.712Z,21.64
2018-05-07T09:32:13.870Z,21.53
2018-05-07T09:33:14.028Z,21.71
2018-05-07T09:34:14.183Z,21.78
2018-05-07T09:35:14.344Z,21.76
2018-05-07T09:36:14.512Z,21.67
2018-05-07T09:37:14.660Z,21.78
2018-05-07T09:38:14.813Z,21.72
2018-05-07T09:39:14.974Z,21.71
2018-05-07T09:40:15.130Z,21.71
2018-05-07T09:41:15.282Z,21.63
2018-05-07T09:42:15.435Z,21.72
2018-05-07T09:43:15.613Z,21.60
2018-05-07T09:44:15.747Z,21.54
2018-05-07T09:45:15.909Z,21.41
2018-05-07T09:46:16.073Z,21.60
2018-05-07T09:47:16.218Z,21.56
2018-05-07T09:48:16.385Z,21.56
2018-05-07T09:49:16.535Z,21.48
2018-05-07T09:50:16.692Z,21.74
2018-05-07T09:51:16.855Z,21.75
2018-05-07T09:52:17.014Z,21.92
2018-05-07T09:53:17.174Z,21.83
2018-05-07T09:54:17.331Z,21.85
2018-05-07T09:55:17.489Z,21.81
2018-05-07T09:56:17.648Z,21.98
2018-05-07T09:57:17.805Z,22.07
2018-05-07T09:58:17.967Z,22.32
2018-05-07T09:59:18.126Z,22.38
2018-05-07T10:00:18.283Z,22.28
2018-05-07T10:01:18.444Z,22.43
2018-05-07T10:02:18.611Z,22.47
2018-05-07T10:03:18.767Z,22.50
2018-05-07T10:04:18.927Z,22.59
2018-05-07T10:05:19.085Z,22.74
2018-05-07T10:06:19.246Z,22.56
2018-05-07T10:07:19.406Z,22.54
2018-05-07T10:08:19.567Z,22.54
2018-05-07T10:09:19.725Z,22.54
2018-05-07T10:10:19.885Z,22.49
2018-05-07T10:11:20.043Z,22.54
2018-05-07T10:12:20.201Z,22.28
2018-05-07T10:13:20.361Z,22.19
2018-05-07T10:14:20.521Z,21.98
2018-05-07T10:15:20.687Z,22.12
2018-05-07T10:16:20.836Z,21.98
2018-05-07T10:17:20.993Z,21.97
2018-05-07T10:18:21.159Z,22.07
2018-05-07T10:19:21.315Z,21.97
2018-05-07T10:20:21.475Z,21.91
2018-05-07T10:21:21.635Z,22.10
2018-05-07T10:22:21.793Z,22.32
2018-05-07T10:23:21.960Z,22.50
2018-05-07T10:24:22.118Z,22.46
2018-05-07T10:25:22.277Z,22.41
2018-05-07T10:26:22.438Z,22.43
2018-05-07T10:27:22.597Z,22.54
2018-05-07T10:28:22.758Z,22.65
2018-05-07T10:29:22.917Z,22.46
2018-05-07T10:30:23.077Z,22.54
2018-05-07T10:31:23.240Z,22.62
2018-05-07T10:32:23.400Z,22.64
2018-05-07T10:33:23.540Z,22.62
2018-05-07T10:34:23.700Z,22.75
2018-05-07T10:35:23.876Z,22.83
2018-05-07T10:36:24.025Z,22.71
2018-05-07T10:37:24.185Z,22.72
2018-05-07T10:38:24.363Z,22.82
2018-05-07T10:39:24.485Z,22.74
2018-05-07T10:40:24.644Z,22.86
2018-05-07T10:41:24.794Z,23.12
2018-05-07T10:42:24.954Z,23.15
2018-05-07T10:43:25.116Z,23.04
2018-05-07T10:44:25.280Z,23.11
2018-05-07T10:45:25.435Z,23.19
2018-05-07T10:46:25.604Z,22.96
2018-05-07T10:47:25.769Z,22.90
2018-05-07T10:48:25.923Z,22.74
2018-05-07T10:49:26.080Z,22.82
2018-05-07T10:50:26.237Z,22.96
2018-05-07T10:51:26.397Z,22.99
2018-05-07T10:52:26.562Z,23.01
2018-05-07T10:53:26.720Z,23.20
2018-05-07T10:54:26.879Z,23.26
2018-05-07T10:55:27.040Z,23.14
2018-05-07T10:56:27.194Z,23.22
2018-05-07T10:57:27.351Z,23.22
2018-05-07T10:58:27.518Z,23.24
2018-05-07T10:59:27.677Z,23.24
2018-05-07T11:00:27.833Z,23.34
2018-05-07T11:01:27.997Z,23.11
2018-05-07T11:02:28.157Z,23.19
2018-05-07T11:03:28.318Z,23.19
2018-05-07T11:04:28.496Z,23.42
2018-05-07T11:05:28.635Z,23.29
2018-05-07T11:06:28.780Z,23.31
2018-05-07T11:07:28.995Z,23.45
2018-05-07T11:08:29.097Z,23.52
2018-05-07T11:09:29.251Z,23.39
2018-05-07T11:10:29.422Z,23.58
2018-05-07T11:11:29.581Z,23.35
2018-05-07T11:12:29.738Z,23.42
2018-05-07T11:13:29.911Z,23.27
2018-05-07T11:14:30.063Z,23.43
2018-05-07T11:15:30.220Z,23.62
2018-05-07T11:16:30.380Z,23.77
2018-05-07T11:17:30.540Z,24.01
2018-05-07T11:18:30.701Z,24.07
2018-05-07T11:19:30.863Z,24.14
2018-05-07T11:20:31.028Z,24.17
2018-05-07T11:21:31.189Z,24.04
2018-05-07T11:22:31.350Z,24.13
2018-05-07T11:23:31.510Z,24.08
2018-05-07T11:24:31.669Z,24.13
2018-05-07T11:25:31.831Z,24.24
2018-05-07T11:26:31.992Z,24.29
2018-05-07T11:27:32.156Z,24.29
2018-05-07T11:28:32.315Z,24.37
2018-05-07T11:29:32.478Z,24.57
2018-05-07T11:30:32.644Z,24.17
2018-05-07T11:31:32.824Z,24.23
2018-05-07T11:32:32.968Z,24.39
2018-05-07T11:33:33.116Z,24.53
2018-05-07T11:34:33.326Z,24.14
2018-05-07T11:35:33.426Z,24.07
2018-05-07T11:36:33.587Z,24.01
2018-05-07T11:37:33.739Z,24.05
2018-05-07T11:38:33.903Z,24.19
2018-05-07T11:39:34.063Z,24.13
2018-05-07T11:40:34.223Z,24.12
2018-05-07T11:41:34.387Z,24.13
2018-05-07T11:42:34.540Z,24.26
2018-05-07T11:43:34.702Z,24.54
2018-05-07T11:44:34.860Z,24.60
2018-05-07T11:45:35.022Z,24.63
2018-05-07T11:46:35.182Z,24.83
2018-05-07T11:47:35.468Z,25.02
2018-05-07T11:48:35.505Z,25.00
2018-05-07T11:49:35.653Z,25.07
2018-05-07T11:50:35.819Z,25.05
2018-05-07T11:51:35.980Z,24.90
2018-05-07T11:52:36.140Z,24.68
2018-05-07T11:53:36.323Z,24.53
2018-05-07T11:54:36.466Z,24.44
2018-05-07T11:55:36.616Z,24.56
2018-05-07T11:56:36.777Z,24.69
2018-05-07T11:57:36.936Z,24.79
2018-05-07T11:58:37.093Z,24.83
2018-05-07T11:59:37.260Z,24.88
2018-05-07T12:00:37.413Z,25.00
2018-05-07T12:01:37.578Z,24.88
2018-05-07T12:02:37.744Z,25.12
2018-05-07T12:03:37.894Z,25.00
2018-05-07T12:04:38.055Z,24.91
2018-05-07T12:05:38.216Z,24.97
2018-05-07T12:06:38.373Z,25.07
2018-05-07T12:07:38.538Z,25.24
2018-05-07T12:08:38.703Z,25.15
2018-05-07T12:09:38.866Z,25.17
2018-05-07T12:10:39.027Z,24.92
2018-05-07T12:11:39.184Z,24.91
2018-05-07T12:12:39.330Z,24.92
2018-05-07T12:13:39.492Z,24.98
2018-05-07T12:14:39.649Z,24.94
2018-05-07T12:15:39.813Z,24.83
2018-05-07T12:16:39.973Z,24.97
2018-05-07T12:17:40.135Z,25.07
2018-05-07T12:18:40.303Z,24.94
2018-05-07T12:19:40.467Z,25.19
2018-05-07T12:20:40.622Z,25.34
2018-05-07T12:21:40.784Z,25.44
2018-05-07T12:22:40.947Z,25.56
2018-05-07T12:23:41.110Z,25.50
2018-05-07T12:24:41.274Z,25.49
2018-05-07T12:25:41.435Z,25.52
2018-05-07T12:26:41.590Z,25.59
2018-05-07T12:27:41.748Z,25.47
2018-05-07T12:28:41.908Z,25.64
2018-05-07T12:29:42.078Z,25.69
2018-05-07T12:30:42.245Z,25.52
2018-05-07T12:31:42.533Z,25.50
2018-05-07T12:32:42.561Z,25.62
2018-05-07T12:33:42.725Z,25.71
2018-05-07T12:34:42.881Z,25.57
2018-05-07T12:35:43.044Z,25.46
2018-05-07T12:36:43.210Z,25.71
2018-05-07T12:37:43.378Z,25.59
2018-05-07T12:38:43.533Z,25.28
2018-05-07T12:39:43.696Z,25.31
2018-05-07T12:40:43.865Z,25.52
2018-05-07T12:41:44.020Z,25.43
2018-05-07T12:42:44.184Z,25.50
2018-05-07T12:43:44.346Z,25.68
2018-05-07T12:44:44.505Z,25.90
2018-05-07T12:45:44.662Z,25.83
2018-05-07T12:46:44.870Z,25.72
2018-05-07T12:47:44.979Z,25.68
2018-05-07T12:48:45.143Z,25.65
2018-05-07T12:49:45.309Z,25.44
2018-05-07T12:50:45.469Z,25.50
2018-05-07T12:51:45.637Z,25.56
2018-05-07T12:52:45.856Z,25.71
2018-05-07T12:53:45.960Z,25.77
2018-05-07T12:54:46.125Z,25.89
2018-05-07T12:55:46.288Z,26.04
2018-05-07T12:56:46.443Z,26.09
2018-05-07T12:57:46.606Z,26.17
2018-05-07T12:58:46.768Z,26.06
2018-05-07T12:59:46.927Z,26.39